Terminal Aerodrome Forecast
Issued by NWS

Home | Current Version | Previous Version | Text Only | Print | Product List | Glossary On
Versions: 1 2 3 4 5 6 7 8 9 10 11 12 13 14 15 16 17 18 19 20 21 22 23 24 25 26 27 28 29 30
000
FTUS43 KLOT 232200 AAB
TAFDPA
TAF AMD
KDPA 232206Z 2322/2418 20011KT P6SM BKN090 OVC200
     FM240000 19008KT P6SM VCSH SCT035 OVC060
      TEMPO 2400/2402 -SHRA
     FM240300 22005KT P6SM BKN025 OVC040
     FM240500 21006KT P6SM OVC012
     FM241000 VRB03KT 3SM BR SCT010 BKN015
     FM241200 VRB03KT 1SM BR SCT010 BKN015
     FM241400 23005KT P6SM SCT010 BKN020=

USA.gov is the U.S. government's official web portal to all federal, state and local government web resources and services.